createdAt,value
2022-09-23T00:00:31.011Z,23.70
2022-09-23T00:02:59.660Z,24.80
2022-09-23T00:05:26.717Z,26.05
2022-09-23T00:07:53.169Z,22.98
2022-09-23T00:10:19.634Z,21.38
2022-09-23T00:12:46.117Z,25.88
2022-09-23T00:15:12.619Z,23.35
2022-09-23T00:17:39.979Z,21.60
2022-09-23T00:20:08.167Z,23.70
2022-09-23T00:22:35.548Z,21.38
2022-09-23T00:25:06.228Z,20.98
2022-09-23T00:27:33.978Z,21.75
2022-09-23T00:30:01.228Z,23.30
2022-09-23T00:32:28.041Z,21.10
2022-09-23T00:34:54.516Z,23.63
2022-09-23T00:37:21.148Z,19.77
2022-09-23T00:39:47.576Z,22.42
2022-09-23T00:42:16.303Z,24.40
2022-09-23T00:44:53.052Z,19.67
2022-09-23T00:47:54.961Z,20.80
2022-09-23T00:50:24.291Z,19.17
2022-09-23T00:52:51.586Z,18.02
2022-09-23T00:55:21.549Z,18.83
2022-09-23T00:57:48.145Z,19.17
2022-09-23T01:00:14.656Z,19.30
2022-09-23T01:02:41.156Z,19.20
2022-09-23T01:05:08.289Z,18.85
2022-09-23T01:07:34.912Z,20.95
2022-09-23T01:10:02.086Z,21.42
2022-09-23T01:12:38.053Z,19.45
2022-09-23T01:15:07.123Z,21.08
2022-09-23T01:17:33.586Z,21.02
2022-09-23T01:19:59.975Z,23.48
2022-09-23T01:22:30.912Z,19.65
2022-09-23T01:25:15.805Z,21.63
2022-09-23T01:27:51.295Z,19.98
2022-09-23T01:30:33.128Z,22.02
2022-09-23T01:33:11.210Z,19.33
2022-09-23T01:35:43.621Z,20.92
2022-09-23T01:38:22.325Z,22.08
2022-09-23T01:40:48.842Z,22.85
2022-09-23T01:43:18.439Z,24.52
2022-09-23T01:45:46.968Z,24.90
2022-09-23T01:48:32.460Z,26.25
2022-09-23T01:51:08.671Z,23.15
2022-09-23T01:53:50.143Z,25.20
2022-09-23T01:56:28.669Z,22.02
2022-09-23T01:58:59.775Z,22.15
2022-09-23T02:01:30.054Z,20.13
2022-09-23T02:04:04.208Z,22.52
2022-09-23T02:06:33.605Z,23.48
2022-09-23T02:09:01.820Z,24.13
2022-09-23T02:11:28.941Z,25.70
2022-09-23T02:14:00.976Z,24.05
2022-09-23T02:16:36.017Z,22.35
2022-09-23T02:19:06.914Z,21.42
2022-09-23T02:21:35.350Z,25.17
2022-09-23T02:24:04.214Z,27.88
2022-09-23T02:26:35.038Z,19.48
2022-09-23T02:29:11.058Z,21.75
2022-09-23T02:31:37.863Z,22.73
2022-09-23T02:34:24.111Z,20.52
2022-09-23T02:36:50.526Z,28.10
2022-09-23T02:39:18.099Z,26.90
2022-09-23T02:41:59.401Z,24.45
2022-09-23T02:44:25.950Z,21.60
2022-09-23T02:46:53.162Z,22.25
2022-09-23T02:49:19.606Z,22.90
2022-09-23T02:51:46.598Z,21.83
2022-09-23T02:54:17.418Z,23.90
2022-09-23T02:56:43.889Z,26.80
2022-09-23T02:59:11.573Z,26.63
2022-09-23T03:01:39.226Z,27.77
2022-09-23T03:04:06.837Z,30.08
2022-09-23T03:06:43.381Z,29.20
2022-09-23T03:09:18.909Z,34.17
2022-09-23T03:11:48.551Z,28.95
2022-09-23T03:14:19.843Z,28.90
2022-09-23T03:16:47.818Z,30.35
2022-09-23T03:19:25.244Z,28.23
2022-09-23T03:22:01.009Z,28.80
2022-09-23T03:24:31.242Z,27.42
2022-09-23T03:27:00.391Z,26.35
2022-09-23T03:29:27.053Z,27.27
2022-09-23T03:31:53.979Z,27.63
2022-09-23T03:34:22.927Z,26.35
2022-09-23T03:36:52.087Z,28.00
2022-09-23T03:39:31.533Z,27.42
2022-09-23T03:42:00.554Z,33.97
2022-09-23T03:44:29.205Z,25.77
2022-09-23T03:46:59.195Z,23.60
2022-09-23T03:49:27.311Z,28.00
2022-09-23T03:51:56.803Z,26.02
2022-09-23T03:54:23.246Z,27.98
2022-09-23T03:56:49.786Z,25.02
2022-09-23T03:59:16.493Z,24.10
2022-09-23T04:01:43.445Z,23.83
2022-09-23T04:04:10.412Z,25.50
2022-09-23T04:06:36.993Z,23.27
2022-09-23T04:09:03.542Z,24.77
2022-09-23T04:11:30.016Z,25.38
2022-09-23T04:13:56.759Z,23.63
2022-09-23T04:16:23.229Z,26.58
2022-09-23T04:18:49.684Z,26.70
2022-09-23T04:21:16.092Z,22.85
2022-09-23T04:23:42.655Z,22.48
2022-09-23T04:26:09.271Z,24.30
2022-09-23T04:28:35.694Z,21.02
2022-09-23T04:31:06.128Z,24.50
2022-09-23T04:33:33.006Z,25.33
2022-09-23T04:35:59.433Z,23.70
2022-09-23T04:38:25.924Z,23.80
2022-09-23T04:40:52.402Z,24.92
2022-09-23T04:43:22.869Z,25.17
2022-09-23T04:45:59.787Z,23.95
2022-09-23T04:48:26.294Z,25.25
2022-09-23T04:50:52.794Z,25.52
2022-09-23T04:53:19.291Z,27.85
2022-09-23T04:55:45.766Z,27.63
2022-09-23T04:58:12.306Z,28.75
2022-09-23T05:00:38.899Z,29.60
2022-09-23T05:03:05.410Z,31.33
2022-09-23T05:05:32.235Z,34.72
2022-09-23T05:07:58.742Z,32.70
2022-09-23T05:10:25.226Z,34.60
2022-09-23T05:12:56.898Z,30.42
2022-09-23T05:15:23.766Z,34.22
2022-09-23T05:17:50.192Z,31.00
2022-09-23T05:20:17.853Z,30.75
2022-09-23T05:22:44.978Z,34.17
2022-09-23T05:25:11.384Z,38.47
2022-09-23T05:27:38.259Z,40.22
2022-09-23T05:30:04.942Z,42.28
2022-09-23T05:32:31.886Z,41.50
2022-09-23T05:34:58.505Z,41.97
2022-09-23T05:37:25.817Z,37.10
2022-09-23T05:39:52.416Z,38.10
2022-09-23T05:42:19.638Z,34.53
2022-09-23T05:44:47.267Z,32.53
2022-09-23T05:47:14.383Z,31.75
2022-09-23T05:49:58.728Z,30.00
2022-09-23T05:52:26.288Z,27.98
2022-09-23T05:54:52.747Z,24.45
2022-09-23T05:57:19.817Z,30.85
2022-09-23T05:59:47.761Z,24.50
2022-09-23T06:02:15.157Z,20.58
2022-09-23T06:04:41.653Z,21.25
2022-09-23T06:07:08.646Z,20.15
2022-09-23T06:09:36.723Z,18.00
2022-09-23T06:12:03.646Z,19.05
2022-09-23T06:14:30.113Z,18.20
2022-09-23T06:16:56.560Z,15.80
2022-09-23T06:19:23.220Z,14.32
2022-09-23T06:21:49.735Z,13.18
2022-09-23T06:24:20.268Z,8.85
2022-09-23T06:26:49.073Z,9.02
2022-09-23T06:29:15.467Z,8.35
2022-09-23T06:31:43.314Z,7.03
2022-09-23T06:34:16.412Z,8.90
2022-09-23T06:36:45.492Z,8.00
2022-09-23T06:39:13.215Z,6.30
2022-09-23T06:41:39.765Z,8.45
2022-09-23T06:44:11.665Z,7.60
2022-09-23T06:46:38.296Z,8.13
2022-09-23T06:49:04.879Z,7.20
2022-09-23T06:51:31.344Z,6.25
2022-09-23T06:53:57.831Z,7.50
2022-09-23T06:56:24.785Z,5.28
2022-09-23T06:58:51.914Z,8.15
2022-09-23T07:01:19.164Z,5.03
2022-09-23T07:03:46.299Z,6.57
2022-09-23T07:06:12.885Z,6.78
2022-09-23T07:08:42.626Z,6.00
2022-09-23T07:11:12.305Z,6.65
2022-09-23T07:13:39.895Z,6.07
2022-09-23T07:16:06.362Z,6.57
2022-09-23T07:18:36.708Z,5.55
2022-09-23T07:21:09.545Z,5.50
2022-09-23T07:23:37.767Z,8.05
2022-09-23T07:26:04.651Z,5.63
2022-09-23T07:28:32.198Z,4.72
2022-09-23T07:31:02.233Z,4.93
2022-09-23T07:33:33.291Z,9.50
2022-09-23T07:36:03.868Z,6.45
2022-09-23T07:38:30.987Z,6.63
2022-09-23T07:41:01.501Z,4.45
2022-09-23T07:43:31.955Z,5.57
2022-09-23T07:45:59.417Z,7.18
2022-09-23T07:48:29.610Z,5.00
2022-09-23T07:51:00.186Z,4.13
2022-09-23T07:53:27.051Z,6.72
2022-09-23T07:55:54.702Z,4.75
2022-09-23T07:58:21.339Z,5.03
2022-09-23T08:00:48.469Z,7.80
2022-09-23T08:03:15.007Z,4.10
2022-09-23T08:05:41.688Z,5.38
2022-09-23T08:08:08.579Z,5.88
2022-09-23T08:10:35.054Z,2.92
2022-09-23T08:13:03.427Z,5.70
2022-09-23T08:15:31.183Z,6.32
2022-09-23T08:17:58.304Z,4.05
2022-09-23T08:20:45.072Z,3.10
2022-09-23T08:23:14.793Z,5.15
2022-09-23T08:25:44.134Z,4.78
2022-09-23T08:28:14.229Z,4.82
2022-09-23T08:30:40.752Z,4.38
2022-09-23T08:33:07.354Z,5.97
2022-09-23T08:35:33.789Z,4.57
2022-09-23T08:38:00.272Z,5.32
2022-09-23T08:40:26.787Z,5.85
2022-09-23T08:42:53.417Z,5.07
2022-09-23T08:45:29.133Z,3.78
2022-09-23T08:47:59.665Z,3.90
2022-09-23T08:50:31.826Z,2.83
2022-09-23T08:52:59.634Z,3.08
2022-09-23T08:55:47.808Z,5.20
2022-09-23T08:58:27.027Z,3.92
2022-09-23T09:00:53.616Z,3.33
2022-09-23T09:03:24.826Z,3.83
2022-09-23T09:05:54.374Z,4.25
2022-09-23T09:08:24.363Z,3.10
2022-09-23T09:10:53.817Z,3.72
2022-09-23T09:13:25.097Z,4.20
2022-09-23T09:15:59.105Z,3.80
2022-09-23T09:18:25.686Z,3.70
2022-09-23T09:20:59.102Z,3.03
2022-09-23T09:28:30.861Z,2.35
2022-09-23T09:30:59.917Z,5.37
2022-09-23T09:33:41.267Z,3.88
2022-09-23T09:36:19.192Z,7.57
2022-09-23T09:38:45.605Z,2.95
2022-09-23T09:41:14.413Z,3.72
2022-09-23T09:43:44.131Z,3.83
2022-09-23T09:46:33.152Z,4.25
2022-09-23T09:49:05.789Z,6.82
2022-09-23T09:51:32.477Z,4.97
2022-09-23T09:54:18.147Z,3.40
2022-09-23T09:56:45.035Z,5.65
2022-09-23T09:59:15.586Z,10.23
2022-09-23T10:01:42.128Z,3.80
2022-09-23T10:04:23.667Z,3.25
2022-09-23T10:07:04.509Z,3.60
2022-09-23T10:09:33.806Z,3.78
2022-09-23T10:12:10.812Z,4.68
2022-09-23T10:14:38.578Z,4.30
2022-09-23T10:17:06.429Z,3.15
2022-09-23T10:19:34.989Z,3.83
2022-09-23T10:22:05.395Z,5.53
2022-09-23T10:24:32.908Z,5.32
2022-09-23T10:27:11.869Z,4.38
2022-09-23T10:29:38.814Z,3.30
2022-09-23T10:32:25.686Z,8.02
2022-09-23T10:34:54.202Z,3.88
2022-09-23T10:37:23.740Z,4.97
2022-09-23T10:40:09.043Z,3.40
2022-09-23T10:43:08.359Z,3.90
2022-09-23T10:45:56.983Z,5.80
2022-09-23T10:48:36.125Z,3.80
2022-09-23T10:51:12.266Z,8.52
2022-09-23T10:54:18.456Z,5.45
2022-09-23T10:56:50.690Z,2.72
2022-09-23T10:59:43.558Z,3.33
2022-09-23T11:02:22.576Z,3.97
2022-09-23T11:04:55.261Z,3.90
2022-09-23T11:07:35.033Z,5.13
2022-09-23T11:10:35.218Z,5.55
2022-09-23T11:13:24.547Z,4.85
2022-09-23T11:16:08.904Z,6.28
2022-09-23T11:18:45.211Z,6.03
2022-09-23T11:21:37.059Z,5.32
2022-09-23T11:24:22.080Z,4.50
2022-09-23T11:26:57.630Z,4.10
2022-09-23T11:29:44.947Z,3.90
2022-09-23T11:32:27.615Z,4.97
2022-09-23T11:35:13.005Z,3.75
2022-09-23T11:37:45.330Z,3.80
2022-09-23T11:40:11.847Z,4.32
2022-09-23T11:42:58.587Z,7.05
2022-09-23T11:45:28.428Z,3.92
2022-09-23T11:47:57.124Z,6.75
2022-09-23T11:50:29.630Z,2.63
2022-09-23T11:53:12.919Z,2.05
2022-09-23T11:55:55.665Z,3.13
2022-09-23T11:58:28.067Z,5.70
2022-09-23T12:01:01.382Z,3.40
2022-09-23T12:06:11.519Z,3.03
2022-09-23T12:08:38.475Z,2.63
2022-09-23T12:11:11.127Z,3.40
2022-09-23T12:13:40.665Z,3.63
2022-09-23T12:16:10.372Z,4.40
2022-09-23T12:18:55.545Z,3.28
2022-09-23T12:21:50.168Z,3.75
2022-09-23T12:24:19.283Z,3.50
2022-09-23T12:26:50.190Z,3.95
2022-09-23T12:29:16.874Z,2.67
2022-09-23T12:31:46.699Z,4.32
2022-09-23T12:34:22.398Z,5.57
2022-09-23T12:36:49.052Z,3.50
2022-09-23T12:39:30.377Z,4.30
2022-09-23T12:42:04.390Z,4.80
2022-09-23T12:44:31.739Z,4.57
2022-09-23T12:47:25.400Z,4.22
2022-09-23T12:49:53.205Z,4.95
2022-09-23T12:52:19.631Z,4.18
2022-09-23T12:54:50.194Z,3.35
2022-09-23T12:57:35.176Z,7.43
2022-09-23T13:00:12.541Z,4.70
2022-09-23T13:02:41.016Z,5.18
2022-09-23T13:05:36.282Z,3.58
2022-09-23T13:08:08.926Z,5.40
2022-09-23T13:10:41.870Z,2.93
2022-09-23T13:13:12.905Z,5.80
2022-09-23T13:15:39.497Z,6.35
2022-09-23T13:18:26.255Z,4.85
2022-09-23T13:20:56.852Z,5.05
2022-09-23T13:23:27.021Z,4.30
2022-09-23T13:25:58.379Z,5.03
2022-09-23T13:28:29.017Z,5.50
2022-09-23T13:30:55.653Z,6.70
2022-09-23T13:33:26.301Z,2.60
2022-09-23T13:35:56.756Z,3.60
2022-09-23T13:38:26.764Z,4.65
2022-09-23T13:40:58.792Z,7.10
2022-09-23T13:43:28.031Z,6.47
2022-09-23T13:45:55.246Z,4.03
2022-09-23T13:48:23.726Z,1.95
2022-09-23T13:50:51.166Z,6.18
2022-09-23T13:53:23.501Z,2.47
2022-09-23T13:55:59.222Z,3.70
2022-09-23T13:58:28.408Z,5.93
2022-09-23T14:00:55.241Z,3.00
2022-09-23T14:03:21.767Z,3.28
2022-09-23T14:05:48.503Z,4.82
2022-09-23T14:08:15.106Z,3.90
2022-09-23T14:10:43.321Z,3.00
2022-09-23T14:13:17.186Z,4.57
2022-09-23T14:15:44.901Z,6.22
2022-09-23T14:18:17.711Z,3.85
2022-09-23T14:20:48.160Z,2.75
2022-09-23T14:23:14.773Z,2.90
2022-09-23T14:25:42.825Z,5.55
2022-09-23T14:28:12.793Z,3.40
2022-09-23T14:30:39.330Z,4.20
2022-09-23T14:33:11.116Z,6.28
2022-09-23T14:35:44.613Z,4.80
2022-09-23T14:41:17.150Z,2.95
2022-09-23T14:43:58.261Z,4.60
2022-09-23T14:46:29.386Z,2.67
2022-09-23T14:48:55.982Z,7.95
2022-09-23T14:51:29.153Z,3.80
2022-09-23T14:53:55.587Z,4.65
2022-09-23T14:56:22.765Z,3.45
2022-09-23T14:58:56.313Z,4.03
2022-09-23T15:03:49.618Z,4.47
2022-09-23T15:06:17.257Z,2.72
2022-09-23T15:08:45.021Z,5.90
2022-09-23T15:11:11.927Z,4.47
2022-09-23T15:13:40.495Z,5.18
2022-09-23T15:16:07.395Z,5.53
2022-09-23T15:18:35.674Z,6.78
2022-09-23T15:21:03.506Z,4.28
2022-09-23T15:23:35.075Z,5.65
2022-09-23T15:26:11.445Z,6.10
2022-09-23T15:28:38.030Z,8.32
2022-09-23T15:31:05.840Z,5.75
2022-09-23T15:33:32.636Z,6.53
2022-09-23T15:35:59.090Z,6.38
2022-09-23T15:38:27.214Z,7.18
2022-09-23T15:40:54.254Z,6.00
2022-09-23T15:43:25.166Z,4.63
2022-09-23T15:45:56.359Z,4.65
2022-09-23T15:48:25.236Z,6.88
2022-09-23T15:50:52.325Z,7.57
2022-09-23T15:53:23.903Z,5.95
2022-09-23T15:55:53.140Z,5.32
2022-09-23T15:58:20.565Z,6.32
2022-09-23T16:00:56.326Z,4.82
2022-09-23T16:03:28.312Z,5.57
2022-09-23T16:06:00.152Z,8.00
2022-09-23T16:08:27.548Z,5.80
2022-09-23T16:10:54.970Z,5.57
2022-09-23T16:13:21.714Z,4.68
2022-09-23T16:15:48.187Z,6.82
2022-09-23T16:18:14.660Z,10.15
2022-09-23T16:20:42.594Z,12.50
2022-09-23T16:23:17.425Z,9.20
2022-09-23T16:25:44.454Z,11.68
2022-09-23T16:28:10.883Z,11.23
2022-09-23T16:30:37.346Z,13.77
2022-09-23T16:33:03.909Z,14.25
2022-09-23T16:35:33.523Z,13.40
2022-09-23T16:38:00.072Z,14.73
2022-09-23T16:40:26.912Z,12.75
2022-09-23T16:42:55.934Z,11.20
2022-09-23T16:45:23.220Z,12.50
2022-09-23T16:47:51.433Z,12.52
2022-09-23T16:50:19.475Z,12.93
2022-09-23T16:52:46.130Z,13.05
2022-09-23T16:55:13.518Z,12.65
2022-09-23T16:57:41.529Z,15.00
2022-09-23T17:00:32.105Z,14.85
2022-09-23T17:03:17.391Z,15.02
2022-09-23T17:05:46.707Z,15.20
2022-09-23T17:08:14.708Z,17.63
2022-09-23T17:10:42.595Z,15.85
2022-09-23T17:13:09.120Z,18.50
2022-09-23T17:15:39.839Z,18.92
2022-09-23T17:18:07.586Z,20.27
2022-09-23T17:20:34.539Z,15.95
2022-09-23T17:23:01.281Z,18.02
2022-09-23T17:25:27.697Z,16.58
2022-09-23T17:27:55.785Z,17.85
2022-09-23T17:30:22.345Z,16.73
2022-09-23T17:32:49.020Z,20.02
2022-09-23T17:35:15.574Z,18.83
2022-09-23T17:37:42.076Z,20.23
2022-09-23T17:40:08.767Z,20.00
2022-09-23T17:42:38.753Z,20.73
2022-09-23T17:45:06.726Z,17.02
2022-09-23T17:47:33.699Z,17.90
2022-09-23T17:50:00.609Z,16.33
2022-09-23T17:52:27.081Z,17.10
2022-09-23T17:54:55.028Z,16.35
2022-09-23T17:57:21.751Z,16.10
2022-09-23T17:59:50.749Z,17.48
2022-09-23T18:02:17.250Z,19.98
2022-09-23T18:04:43.793Z,16.20
2022-09-23T18:07:10.327Z,14.95
2022-09-23T18:09:36.744Z,14.32
2022-09-23T18:12:03.225Z,11.45
2022-09-23T18:14:29.684Z,11.73
2022-09-23T18:16:56.113Z,11.82
2022-09-23T18:19:24.413Z,11.25
2022-09-23T18:21:52.005Z,13.45
2022-09-23T18:24:31.974Z,14.52
2022-09-23T18:26:59.879Z,14.10
2022-09-23T18:29:26.877Z,14.77
2022-09-23T18:31:53.516Z,15.10
2022-09-23T18:34:20.380Z,17.80
2022-09-23T18:36:47.175Z,18.38
2022-09-23T18:39:13.729Z,19.17
2022-09-23T18:41:41.028Z,18.83
2022-09-23T18:44:07.487Z,20.45
2022-09-23T18:46:33.976Z,19.02
2022-09-23T18:49:19.070Z,16.30
2022-09-23T18:51:50.498Z,19.80
2022-09-23T18:54:16.940Z,16.10
2022-09-23T18:56:44.540Z,18.60
2022-09-23T18:59:16.602Z,18.17
2022-09-23T19:01:44.021Z,19.08
2022-09-23T19:04:10.704Z,18.77
2022-09-23T19:06:37.426Z,19.20
2022-09-23T19:09:05.548Z,19.20
2022-09-23T19:11:32.274Z,17.88
2022-09-23T19:14:00.520Z,16.38
2022-09-23T19:16:27.331Z,14.60
2022-09-23T19:18:54.424Z,16.33
2022-09-23T19:21:22.098Z,16.95
2022-09-23T19:23:49.956Z,16.38
2022-09-23T19:26:17.454Z,18.05
2022-09-23T19:28:47.573Z,19.17
2022-09-23T19:31:16.687Z,15.45
2022-09-23T19:33:46.261Z,15.35
2022-09-23T19:36:16.253Z,14.55
2022-09-23T19:38:44.376Z,13.75
2022-09-23T19:41:11.238Z,17.27
2022-09-23T19:43:37.974Z,15.10
2022-09-23T19:46:05.627Z,17.58
2022-09-23T19:48:32.221Z,17.65
2022-09-23T19:50:58.953Z,17.80
2022-09-23T19:53:28.200Z,17.30
2022-09-23T19:55:56.069Z,21.80
2022-09-23T19:58:23.166Z,18.23
2022-09-23T20:00:49.677Z,20.77
2022-09-23T20:03:17.638Z,21.23
2022-09-23T20:05:44.117Z,20.55
2022-09-23T20:08:10.585Z,20.35
2022-09-23T20:10:39.087Z,21.63
2022-09-23T20:13:05.516Z,20.30
2022-09-23T20:15:31.939Z,22.13
2022-09-23T20:17:58.371Z,24.77
2022-09-23T20:20:24.781Z,18.77
2022-09-23T20:22:52.748Z,19.85
2022-09-23T20:25:19.197Z,20.67
2022-09-23T20:27:48.108Z,23.17
2022-09-23T20:30:14.638Z,19.63
2022-09-23T20:32:44.631Z,21.15
2022-09-23T20:35:11.466Z,19.98
2022-09-23T20:37:37.977Z,19.67
2022-09-23T20:40:04.784Z,22.38
2022-09-23T20:42:32.053Z,21.27
2022-09-23T20:44:58.527Z,19.98
2022-09-23T20:47:25.017Z,20.92
2022-09-23T20:49:53.450Z,21.98
2022-09-23T20:52:21.505Z,21.05
2022-09-23T20:54:50.452Z,22.90
2022-09-23T20:57:18.081Z,21.02
2022-09-23T20:59:44.615Z,20.63
2022-09-23T21:02:11.149Z,23.02
2022-09-23T21:04:37.615Z,23.48
2022-09-23T21:07:04.260Z,24.65
2022-09-23T21:09:33.651Z,23.90
2022-09-23T21:12:00.187Z,22.23
2022-09-23T21:14:26.784Z,21.40
2022-09-23T21:16:54.886Z,22.33
2022-09-23T21:19:21.456Z,19.70
2022-09-23T21:21:47.858Z,20.63
2022-09-23T21:27:03.907Z,21.42
2022-09-23T21:29:30.355Z,18.80
2022-09-23T21:31:57.229Z,14.82
2022-09-23T21:34:26.082Z,18.08
2022-09-23T21:36:52.594Z,19.63
2022-09-23T21:39:19.458Z,19.27
2022-09-23T21:41:45.920Z,15.85
2022-09-23T21:44:12.386Z,17.58
2022-09-23T21:46:38.887Z,20.88
2022-09-23T21:49:05.439Z,20.70
2022-09-23T21:51:35.214Z,22.08
2022-09-23T21:54:01.829Z,21.38
2022-09-23T21:56:29.875Z,22.65
2022-09-23T21:58:57.317Z,23.10
2022-09-23T22:01:23.961Z,18.50
2022-09-23T22:03:54.626Z,19.40
2022-09-23T22:06:22.812Z,21.00
2022-09-23T22:08:50.617Z,20.40
2022-09-23T22:11:40.256Z,18.20
2022-09-23T22:14:08.045Z,22.33
2022-09-23T22:16:35.952Z,19.88
2022-09-23T22:19:05.187Z,19.67
2022-09-23T22:21:31.695Z,19.95
2022-09-23T22:24:01.147Z,21.20
2022-09-23T22:26:28.485Z,19.30
2022-09-23T22:29:13.444Z,18.52
2022-09-23T22:31:58.217Z,20.17
2022-09-23T22:34:48.596Z,20.30
2022-09-23T22:37:17.540Z,20.83
2022-09-23T22:39:44.298Z,19.35
2022-09-23T22:42:11.107Z,21.05
2022-09-23T22:44:37.567Z,19.73
2022-09-23T22:47:04.087Z,19.50
2022-09-23T22:49:32.059Z,20.60
2022-09-23T22:51:59.461Z,22.25
2022-09-23T22:54:33.393Z,20.50
2022-09-23T22:57:03.244Z,23.38
2022-09-23T22:59:29.843Z,20.67
2022-09-23T23:01:57.217Z,24.73
2022-09-23T23:04:23.820Z,24.58
2022-09-23T23:06:50.268Z,24.23
2022-09-23T23:09:17.749Z,22.73
2022-09-23T23:11:44.889Z,24.10
2022-09-23T23:14:12.501Z,24.15
2022-09-23T23:16:39.329Z,21.83
2022-09-23T23:19:09.522Z,22.10
2022-09-23T23:21:36.560Z,22.58
2022-09-23T23:24:04.540Z,25.60
2022-09-23T23:26:31.887Z,25.20
2022-09-23T23:28:58.972Z,24.02
2022-09-23T23:31:26.931Z,24.85
2022-09-23T23:33:53.833Z,24.80
2022-09-23T23:36:21.465Z,23.08
2022-09-23T23:38:48.728Z,26.77
2022-09-23T23:41:16.324Z,26.27
2022-09-23T23:43:44.128Z,26.83
2022-09-23T23:46:12.000Z,27.40
2022-09-23T23:48:39.021Z,27.17
2022-09-23T23:51:06.740Z,24.38
2022-09-23T23:53:34.297Z,25.73
2022-09-23T23:56:01.728Z,28.05
2022-09-23T23:58:28.626Z,27.27
